createdAt,value
2022-09-05T00:00:19.337Z,8.38
2022-09-05T00:02:58.433Z,7.93
2022-09-05T00:06:02.744Z,13.07
2022-09-05T00:08:34.144Z,8.90
2022-09-05T00:11:39.694Z,11.45
2022-09-05T00:15:15.280Z,7.10
2022-09-05T00:17:17.639Z,9.13
2022-09-05T00:24:20.941Z,6.03
2022-09-05T00:24:32.146Z,8.32
2022-09-05T00:26:10.380Z,49.65
2022-09-05T00:28:44.034Z,32.47
2022-09-05T00:31:53.957Z,20.20
2022-09-05T00:35:13.351Z,15.50
2022-09-05T00:37:44.565Z,20.05
2022-09-05T00:40:33.088Z,30.80
2022-09-05T00:43:11.523Z,31.08
2022-09-05T00:46:00.001Z,26.40
2022-09-05T00:48:53.360Z,19.85
2022-09-05T00:51:39.085Z,25.45
2022-09-05T00:54:56.928Z,22.95
2022-09-05T00:57:47.929Z,28.88
2022-09-05T01:00:18.605Z,22.35
2022-09-05T01:03:09.768Z,26.92
2022-09-05T01:05:55.098Z,19.40
2022-09-05T01:08:40.880Z,18.02
2022-09-05T01:11:33.760Z,27.30
2022-09-05T01:14:26.224Z,28.98
2022-09-05T01:17:17.477Z,23.52
2022-09-05T01:20:20.630Z,32.72
2022-09-05T01:22:53.976Z,31.20
2022-09-05T01:25:31.364Z,38.83
2022-09-05T01:29:17.248Z,31.83
2022-09-05T01:31:37.772Z,46.38
2022-09-05T01:34:21.697Z,38.30
2022-09-05T01:37:29.703Z,36.35
2022-09-05T01:40:34.614Z,31.85
2022-09-05T01:43:25.672Z,33.65
2022-09-05T01:46:27.626Z,24.08
2022-09-05T01:49:20.469Z,32.92
2022-09-05T01:51:48.055Z,26.80
2022-09-05T01:54:33.956Z,23.45
2022-09-05T01:57:19.612Z,28.80
2022-09-05T02:00:05.484Z,25.77
2022-09-05T02:02:50.216Z,20.75
2022-09-05T02:05:48.218Z,24.08
2022-09-05T02:08:34.002Z,31.75
2022-09-05T02:11:01.895Z,25.98
2022-09-05T02:13:56.387Z,36.13
2022-09-05T02:16:31.300Z,22.23
2022-09-05T02:19:12.366Z,25.85
2022-09-05T02:21:56.115Z,27.67
2022-09-05T02:24:38.229Z,30.45
2022-09-05T02:28:04.615Z,29.58
2022-09-05T02:30:29.903Z,33.55
2022-09-05T02:33:37.289Z,24.40
2022-09-05T02:36:49.231Z,31.20
2022-09-05T02:45:08.516Z,30.25
2022-09-05T02:45:09.420Z,34.80
2022-09-05T02:45:37.644Z,40.28
2022-09-05T02:48:27.830Z,35.70
2022-09-05T02:57:24.468Z,26.92
2022-09-05T02:57:47.027Z,46.20
2022-09-05T02:58:04.665Z,29.63
2022-09-05T03:00:03.104Z,27.25
2022-09-05T03:02:49.610Z,28.10
2022-09-05T03:05:41.521Z,33.65
2022-09-05T03:08:16.860Z,24.90
2022-09-05T03:11:15.258Z,32.78
2022-09-05T03:14:15.572Z,32.95
2022-09-05T03:17:25.773Z,35.63
2022-09-05T03:20:21.080Z,31.23
2022-09-05T03:23:16.670Z,25.67
2022-09-05T03:26:04.557Z,35.97
2022-09-05T03:29:09.899Z,30.15
2022-09-05T03:31:52.114Z,25.38
2022-09-05T03:34:25.656Z,30.60
2022-09-05T03:37:40.857Z,25.73
2022-09-05T03:40:46.950Z,30.88
2022-09-05T03:43:30.862Z,30.08
2022-09-05T03:46:01.625Z,34.75
2022-09-05T03:48:39.775Z,34.60
2022-09-05T03:57:11.362Z,26.73
2022-09-05T03:57:52.595Z,35.83
2022-09-05T04:00:28.043Z,32.70
2022-09-05T04:07:32.433Z,40.60
2022-09-05T04:08:16.455Z,32.95
2022-09-05T04:08:50.280Z,36.58
2022-09-05T04:11:47.378Z,44.25
2022-09-05T04:14:24.449Z,41.33
2022-09-05T04:16:58.527Z,38.53
2022-09-05T04:19:33.123Z,35.75
2022-09-05T04:22:32.969Z,55.35
2022-09-05T04:25:15.348Z,37.00
2022-09-05T04:28:27.448Z,42.42
2022-09-05T04:31:40.666Z,42.75
2022-09-05T04:34:23.123Z,43.70
2022-09-05T04:37:02.122Z,35.00
2022-09-05T04:39:30.321Z,41.58
2022-09-05T04:42:24.265Z,44.85
2022-09-05T04:45:10.025Z,37.08
2022-09-05T04:47:43.100Z,46.08
2022-09-05T04:50:23.415Z,40.65
2022-09-05T04:53:00.902Z,45.58
2022-09-05T04:55:38.379Z,32.53
2022-09-05T04:58:22.739Z,31.13
2022-09-05T05:01:04.602Z,28.23
2022-09-05T05:06:01.308Z,31.38
2022-09-05T05:09:15.528Z,36.25
2022-09-05T05:18:13.921Z,24.13
2022-09-05T05:18:16.390Z,38.72
2022-09-05T05:20:55.948Z,38.03
2022-09-05T05:23:40.618Z,32.33
2022-09-05T05:26:33.560Z,25.38
2022-09-05T05:29:19.546Z,33.28
2022-09-05T05:31:52.285Z,34.42
2022-09-05T05:34:36.775Z,30.98
2022-09-05T05:37:25.484Z,39.75
2022-09-05T05:40:19.275Z,34.72
2022-09-05T05:42:47.078Z,27.73
2022-09-05T05:45:27.437Z,34.97
2022-09-05T05:48:03.111Z,29.50
2022-09-05T05:51:13.701Z,34.25
2022-09-05T05:54:00.682Z,40.35
2022-09-05T05:56:51.042Z,36.67
2022-09-05T05:59:56.355Z,31.48
2022-09-05T06:03:25.724Z,35.95
2022-09-05T06:06:33.235Z,34.45
2022-09-05T06:13:02.272Z,29.00
2022-09-05T06:15:02.951Z,33.55
2022-09-05T06:15:57.424Z,35.28
2022-09-05T06:19:00.907Z,35.50
2022-09-05T06:22:08.299Z,26.83
2022-09-05T06:24:58.804Z,33.50
2022-09-05T06:28:19.332Z,29.00
2022-09-05T06:31:31.196Z,27.15
2022-09-05T06:34:35.670Z,25.63
2022-09-05T06:37:21.206Z,30.98
2022-09-05T06:39:51.834Z,31.98
2022-09-05T06:42:42.494Z,37.00
2022-09-05T06:45:49.965Z,27.38
2022-09-05T06:49:28.874Z,30.75
2022-09-05T06:51:49.099Z,33.50
2022-09-05T06:54:34.765Z,31.05
2022-09-05T06:57:31.789Z,39.38
2022-09-05T07:00:19.636Z,35.53
2022-09-05T07:05:47.570Z,43.22
2022-09-05T07:08:36.766Z,50.35
2022-09-05T07:11:33.046Z,38.15
2022-09-05T07:14:17.635Z,36.47
2022-09-05T07:16:50.942Z,39.05
2022-09-05T07:19:27.436Z,44.45
2022-09-05T07:22:46.062Z,44.92
2022-09-05T07:24:56.614Z,38.13
2022-09-05T07:27:49.880Z,53.28
2022-09-05T07:30:27.563Z,45.22
2022-09-05T07:32:58.736Z,41.30
2022-09-05T07:35:41.960Z,45.38
2022-09-05T07:38:21.661Z,44.10
2022-09-05T07:40:55.367Z,38.17
2022-09-05T07:43:28.022Z,34.97
2022-09-05T07:46:17.442Z,30.35
2022-09-05T07:48:53.419Z,27.75
2022-09-05T07:56:47.081Z,35.13
2022-09-05T07:57:08.983Z,26.52
2022-09-05T07:57:32.653Z,29.60
2022-09-05T08:00:27.087Z,26.90
2022-09-05T08:03:08.743Z,24.38
2022-09-05T08:05:42.718Z,25.00
2022-09-05T08:08:17.877Z,22.13
2022-09-05T08:11:22.243Z,32.45
2022-09-05T08:13:42.549Z,24.50
2022-09-05T08:16:21.974Z,26.73
2022-09-05T08:19:46.351Z,22.85
2022-09-05T08:22:21.412Z,21.73
2022-09-05T08:25:02.195Z,28.10
2022-09-05T08:27:56.175Z,20.05
2022-09-05T08:30:26.355Z,24.60
2022-09-05T08:33:10.356Z,24.10
2022-09-05T08:35:57.720Z,20.35
2022-09-05T08:38:40.917Z,22.08
2022-09-05T08:41:50.354Z,19.20
2022-09-05T08:46:42.371Z,22.27
2022-09-05T08:47:46.190Z,17.75
2022-09-05T08:50:33.009Z,23.65
2022-09-05T08:53:26.344Z,19.35
2022-09-05T08:56:35.787Z,18.60
2022-09-05T08:59:31.546Z,20.80
2022-09-05T09:02:45.676Z,20.23
2022-09-05T09:05:14.125Z,15.85
2022-09-05T09:08:15.728Z,18.77
2022-09-05T09:11:07.979Z,19.25
2022-09-05T09:13:56.580Z,18.95
2022-09-05T09:16:54.264Z,17.15
2022-09-05T09:22:25.435Z,15.02
2022-09-05T09:25:14.725Z,13.85
2022-09-05T09:28:45.287Z,14.32
2022-09-05T09:31:12.226Z,13.77
2022-09-05T09:33:50.396Z,10.68
2022-09-05T09:36:54.051Z,14.48
2022-09-05T09:39:44.704Z,19.10
2022-09-05T09:42:32.775Z,16.90
2022-09-05T09:45:28.111Z,16.58
2022-09-05T09:48:33.971Z,15.70
2022-09-05T09:51:39.370Z,15.38
2022-09-05T09:54:26.905Z,13.35
2022-09-05T09:57:05.385Z,10.63
2022-09-05T09:59:32.839Z,15.10
2022-09-05T10:04:55.590Z,17.92
2022-09-05T10:10:50.595Z,16.58
2022-09-05T10:11:08.156Z,19.70
2022-09-05T10:11:54.085Z,12.20
2022-09-05T10:14:49.451Z,17.23
2022-09-05T10:17:42.387Z,13.20
2022-09-05T10:20:29.283Z,11.32
2022-09-05T10:23:34.936Z,12.68
2022-09-05T10:26:27.500Z,13.63
2022-09-05T10:29:36.598Z,14.50
2022-09-05T10:35:10.554Z,13.40
2022-09-05T10:35:26.422Z,13.68
2022-09-05T10:38:11.408Z,12.43
2022-09-05T10:41:11.321Z,15.80
2022-09-05T10:43:49.112Z,16.23
2022-09-05T10:46:51.511Z,15.20
2022-09-05T10:49:30.244Z,15.68
2022-09-05T10:52:18.850Z,15.55
2022-09-05T10:55:13.545Z,10.57
2022-09-05T10:57:47.732Z,13.45
2022-09-05T11:02:27.978Z,12.95
2022-09-05T11:04:18.550Z,12.40
2022-09-05T11:06:53.388Z,16.58
2022-09-05T11:09:46.720Z,18.80
2022-09-05T11:12:57.522Z,12.68
2022-09-05T11:16:04.625Z,12.85
2022-09-05T11:19:15.059Z,14.10
2022-09-05T11:22:05.228Z,15.93
2022-09-05T11:27:36.459Z,12.50
2022-09-05T11:30:30.569Z,11.00
2022-09-05T11:36:56.519Z,14.85
2022-09-05T11:39:58.553Z,10.80
2022-09-05T11:40:02.701Z,12.20
2022-09-05T11:43:01.911Z,13.52
2022-09-05T11:45:54.507Z,10.95
2022-09-05T11:48:34.322Z,11.15
2022-09-05T11:51:08.074Z,16.52
2022-09-05T11:53:59.668Z,12.82
2022-09-05T11:56:45.938Z,19.05
2022-09-05T11:59:13.900Z,10.55
2022-09-05T12:01:57.256Z,11.05
2022-09-05T12:05:49.739Z,11.32
2022-09-05T12:07:57.769Z,9.95
2022-09-05T12:10:47.076Z,15.60
2022-09-05T12:13:37.756Z,15.05
2022-09-05T12:16:38.084Z,8.25
2022-09-05T12:19:20.047Z,10.40
2022-09-05T12:22:23.875Z,10.52
2022-09-05T12:25:25.681Z,9.90
2022-09-05T12:29:27.132Z,11.45
2022-09-05T12:32:36.597Z,14.32
2022-09-05T12:36:10.818Z,12.60
2022-09-05T12:40:27.655Z,10.43
2022-09-05T12:41:37.661Z,15.88
2022-09-05T12:43:53.091Z,12.98
2022-09-05T12:46:46.295Z,13.40
2022-09-05T12:49:35.215Z,10.38
2022-09-05T12:52:19.166Z,12.85
2022-09-05T12:54:56.928Z,10.77
2022-09-05T13:02:18.652Z,9.52
2022-09-05T13:03:08.459Z,7.90
2022-09-05T13:03:27.941Z,13.18
2022-09-05T13:06:25.641Z,13.50
2022-09-05T13:09:01.559Z,11.00
2022-09-05T13:14:48.471Z,11.48
2022-09-05T13:14:55.030Z,14.63
2022-09-05T13:17:53.483Z,13.57
2022-09-05T13:20:32.492Z,11.77
2022-09-05T13:23:13.180Z,11.02
2022-09-05T13:25:43.956Z,13.25
2022-09-05T13:28:14.985Z,9.30
2022-09-05T13:38:07.998Z,13.48
2022-09-05T13:38:08.166Z,9.55
2022-09-05T13:38:12.465Z,8.50
2022-09-05T13:40:20.509Z,13.57
2022-09-05T13:43:26.740Z,11.27
2022-09-05T13:46:17.318Z,11.90
2022-09-05T13:51:55.621Z,9.45
2022-09-05T13:54:38.610Z,6.60
2022-09-05T13:57:41.302Z,10.15
2022-09-05T14:00:26.675Z,8.18
2022-09-05T14:03:38.301Z,7.60
2022-09-05T14:06:45.217Z,8.63
2022-09-05T14:12:04.244Z,11.93
2022-09-05T14:18:19.936Z,10.90
2022-09-05T14:21:15.883Z,12.90
2022-09-05T14:23:57.500Z,5.65
2022-09-05T14:26:34.459Z,9.45
2022-09-05T14:29:33.117Z,7.73
2022-09-05T14:37:37.384Z,8.57
2022-09-05T14:37:39.369Z,7.78
2022-09-05T14:39:01.428Z,5.38
2022-09-05T14:42:09.374Z,8.75
2022-09-05T14:45:07.832Z,9.77
2022-09-05T14:48:26.204Z,5.25
2022-09-05T14:51:25.202Z,8.00
2022-09-05T14:54:11.792Z,9.00
2022-09-05T14:58:37.062Z,6.65
2022-09-05T15:02:49.023Z,8.35
2022-09-05T15:03:02.417Z,6.82
2022-09-05T15:05:41.095Z,7.15
2022-09-05T15:10:06.426Z,7.55
2022-09-05T15:12:21.744Z,5.68
2022-09-05T15:14:11.559Z,7.97
2022-09-05T15:16:50.284Z,9.38
2022-09-05T15:20:07.569Z,6.05
2022-09-05T15:22:59.627Z,10.05
2022-09-05T15:26:25.568Z,8.75
2022-09-05T15:29:14.830Z,13.48
2022-09-05T15:31:43.857Z,10.77
2022-09-05T15:34:27.577Z,6.20
2022-09-05T15:36:56.587Z,8.20
2022-09-05T15:40:10.759Z,7.78
2022-09-05T15:42:56.080Z,7.22
2022-09-05T15:45:32.804Z,10.50
2022-09-05T15:48:12.604Z,7.88
2022-09-05T15:50:56.751Z,13.35
2022-09-05T15:53:28.931Z,9.48
2022-09-05T15:56:14.172Z,12.50
2022-09-05T15:59:02.061Z,9.40
2022-09-05T16:01:59.028Z,12.80
2022-09-05T16:10:28.798Z,9.23
2022-09-05T16:10:37.976Z,10.93
2022-09-05T16:11:17.666Z,6.95
2022-09-05T16:13:52.524Z,12.05
2022-09-05T16:23:16.806Z,9.23
2022-09-05T16:23:36.937Z,10.65
2022-09-05T16:25:03.010Z,9.55
2022-09-05T16:27:42.963Z,11.85
2022-09-05T16:30:19.657Z,11.02
2022-09-05T16:32:51.654Z,14.13
2022-09-05T16:35:25.103Z,9.00
2022-09-05T16:38:03.291Z,15.18
2022-09-05T16:40:39.294Z,11.32
2022-09-05T16:43:15.728Z,11.23
2022-09-05T16:45:55.819Z,13.63
2022-09-05T16:48:39.833Z,14.55
2022-09-05T16:51:15.752Z,14.52
2022-09-05T16:53:59.029Z,15.88
2022-09-05T16:56:53.873Z,12.32
2022-09-05T16:59:26.512Z,14.20
2022-09-05T17:02:17.967Z,14.15
2022-09-05T17:05:15.924Z,15.98
2022-09-05T17:07:47.040Z,12.93
2022-09-05T17:10:25.629Z,14.23
2022-09-05T17:12:54.607Z,14.15
2022-09-05T17:15:36.304Z,12.48
2022-09-05T17:18:21.541Z,9.25
2022-09-05T17:20:56.705Z,10.95
2022-09-05T17:29:18.185Z,10.70
2022-09-05T17:29:49.894Z,12.77
2022-09-05T17:32:39.233Z,12.15
2022-09-05T17:35:17.695Z,10.25
2022-09-05T17:38:11.882Z,7.57
2022-09-05T17:41:10.784Z,11.27
2022-09-05T17:43:40.953Z,9.43
2022-09-05T17:46:22.655Z,13.77
2022-09-05T17:49:18.610Z,10.30
2022-09-05T17:51:51.292Z,12.68
2022-09-05T17:54:26.978Z,10.82
2022-09-05T17:56:54.525Z,8.82
2022-09-05T17:59:23.095Z,8.30
2022-09-05T18:02:03.184Z,8.77
2022-09-05T18:04:51.168Z,9.90
2022-09-05T18:07:34.714Z,12.48
2022-09-05T18:10:15.239Z,13.07
2022-09-05T18:13:31.306Z,10.98
2022-09-05T18:15:43.862Z,8.90
2022-09-05T18:19:03.780Z,8.93
2022-09-05T18:21:23.634Z,10.63
2022-09-05T18:24:01.472Z,8.98
2022-09-05T18:26:39.446Z,9.45
2022-09-05T18:32:45.509Z,13.43
2022-09-05T18:35:37.699Z,9.57
2022-09-05T18:38:51.689Z,12.70
2022-09-05T18:41:27.665Z,11.88
2022-09-05T18:44:13.699Z,10.77
2022-09-05T18:46:54.583Z,10.50
2022-09-05T18:50:18.118Z,7.40
2022-09-05T18:52:29.930Z,8.88
2022-09-05T18:56:13.599Z,11.13
2022-09-05T18:58:12.784Z,15.20
2022-09-05T19:00:46.615Z,21.50
2022-09-05T19:03:24.901Z,11.95
2022-09-05T19:08:43.231Z,13.93
2022-09-05T19:11:28.519Z,10.70
2022-09-05T19:14:26.590Z,9.38
2022-09-05T19:16:48.457Z,9.73
2022-09-05T19:19:24.615Z,12.93
2022-09-05T19:22:33.129Z,9.88
2022-09-05T19:24:48.398Z,10.32
2022-09-05T19:28:13.955Z,15.75
2022-09-05T19:36:47.390Z,8.90
2022-09-05T19:37:08.028Z,12.27
2022-09-05T19:37:08.705Z,40.85
2022-09-05T19:42:10.138Z,17.73
2022-09-05T19:47:49.001Z,18.30
2022-09-05T19:47:51.861Z,16.17
2022-09-05T19:48:03.842Z,16.88
2022-09-05T19:50:32.104Z,15.32
2022-09-05T19:53:07.688Z,15.82
2022-09-05T19:55:37.699Z,15.40
2022-09-05T19:58:28.719Z,13.77
2022-09-05T20:01:03.202Z,20.25
2022-09-05T20:03:40.214Z,13.52
2022-09-05T20:06:29.628Z,18.13
2022-09-05T20:09:11.021Z,19.35
2022-09-05T20:11:45.956Z,18.45
2022-09-05T20:14:42.095Z,15.48
2022-09-05T20:17:32.145Z,13.88
2022-09-05T20:20:30.560Z,12.88
2022-09-05T20:23:07.867Z,17.10
2022-09-05T20:25:43.778Z,17.00
2022-09-05T20:28:13.547Z,19.13
2022-09-05T20:31:01.813Z,16.02
2022-09-05T20:33:57.893Z,18.02
2022-09-05T20:42:52.453Z,21.23
2022-09-05T20:43:20.653Z,24.73
2022-09-05T20:43:24.587Z,18.00
2022-09-05T20:45:44.539Z,19.25
2022-09-05T20:54:09.894Z,16.58
2022-09-05T20:54:15.237Z,20.05
2022-09-05T20:54:19.063Z,15.60
2022-09-05T20:56:54.914Z,16.20
2022-09-05T20:59:32.575Z,21.20
2022-09-05T21:02:06.434Z,18.90
2022-09-05T21:04:38.463Z,16.25
2022-09-05T21:07:15.162Z,19.20
2022-09-05T21:10:04.296Z,17.35
2022-09-05T21:12:44.952Z,22.10
2022-09-05T21:15:52.085Z,24.98
2022-09-05T21:18:24.195Z,22.73
2022-09-05T21:21:28.038Z,24.00
2022-09-05T21:24:18.172Z,23.67
2022-09-05T21:26:48.438Z,23.10
2022-09-05T21:29:25.581Z,27.80
2022-09-05T21:32:01.642Z,27.85
2022-09-05T21:34:33.472Z,22.10
2022-09-05T21:37:07.166Z,21.83
2022-09-05T21:39:59.169Z,23.35
2022-09-05T21:47:32.977Z,19.08
2022-09-05T21:47:47.160Z,21.58
2022-09-05T21:48:08.777Z,23.67
2022-09-05T21:50:46.280Z,20.90
2022-09-05T21:55:10.722Z,18.65
2022-09-05T21:59:17.124Z,17.42
2022-09-05T21:59:29.035Z,17.33
2022-09-05T22:01:53.269Z,14.60
2022-09-05T22:04:21.803Z,11.85
2022-09-05T22:06:50.351Z,10.43
2022-09-05T22:11:51.124Z,21.38
2022-09-05T22:14:20.671Z,12.60
2022-09-05T22:16:50.805Z,11.13
2022-09-05T22:19:37.435Z,13.13
2022-09-05T22:22:16.514Z,10.52
2022-09-05T22:24:52.445Z,12.35
2022-09-05T22:27:21.107Z,11.70
2022-09-05T22:29:51.181Z,16.50
2022-09-05T22:32:25.884Z,22.88
2022-09-05T22:35:27.741Z,15.25
2022-09-05T22:38:10.952Z,11.52
2022-09-05T22:40:40.955Z,25.65
2022-09-05T22:43:10.169Z,35.03
2022-09-05T22:45:39.229Z,21.92
2022-09-05T22:48:14.743Z,16.40
2022-09-05T22:50:43.070Z,28.08
2022-09-05T22:53:13.105Z,35.25
2022-09-05T22:55:43.008Z,30.23
2022-09-05T22:58:12.983Z,25.13
2022-09-05T23:00:44.918Z,20.95
2022-09-05T23:03:12.392Z,24.05
2022-09-05T23:05:39.862Z,24.60
2022-09-05T23:08:07.647Z,25.02
2022-09-05T23:10:36.832Z,37.50
2022-09-05T23:13:06.619Z,26.27
2022-09-05T23:15:34.926Z,31.90
2022-09-05T23:18:03.909Z,39.10
2022-09-05T23:20:32.219Z,34.40
2022-09-05T23:23:04.230Z,33.60
2022-09-05T23:25:32.699Z,29.85
2022-09-05T23:28:04.150Z,32.47
2022-09-05T23:30:31.918Z,39.03
2022-09-05T23:32:59.664Z,27.15
2022-09-05T23:35:27.151Z,38.92
2022-09-05T23:37:54.803Z,30.13
2022-09-05T23:40:23.054Z,39.10
2022-09-05T23:45:19.903Z,30.02
2022-09-05T23:47:47.762Z,30.90
2022-09-05T23:50:15.641Z,21.52
2022-09-05T23:52:44.943Z,34.58
2022-09-05T23:55:14.820Z,32.42
2022-09-05T23:57:42.875Z,37.13
